createdAt,value
2022-12-26T00:00:11.982Z,9.55
2022-12-26T00:05:36.348Z,10.10
2022-12-26T00:08:04.095Z,11.45
2022-12-26T00:10:31.139Z,10.77
2022-12-26T00:13:39.913Z,11.38
2022-12-26T00:16:17.808Z,10.60
2022-12-26T00:24:53.079Z,12.88
2022-12-26T00:27:21.067Z,9.07
2022-12-26T00:29:53.071Z,10.88
2022-12-26T00:32:21.087Z,10.95
2022-12-26T00:34:56.098Z,10.45
2022-12-26T00:37:23.091Z,10.82
2022-12-26T00:39:51.045Z,9.05
2022-12-26T00:42:19.039Z,10.73
2022-12-26T00:44:47.024Z,12.27
2022-12-26T00:47:15.235Z,13.68
2022-12-26T00:50:35.138Z,14.90
2022-12-26T00:56:02.270Z,17.42
2022-12-26T00:58:29.416Z,14.75
2022-12-26T01:01:06.338Z,12.15
2022-12-26T01:03:33.076Z,13.52
2022-12-26T01:06:02.315Z,15.43
2022-12-26T01:08:28.996Z,14.02
2022-12-26T01:11:09.887Z,15.93
2022-12-26T01:13:42.330Z,15.73
2022-12-26T01:16:09.165Z,14.82
2022-12-26T01:21:29.143Z,17.40
2022-12-26T01:23:57.280Z,15.65
2022-12-26T01:26:25.050Z,17.60
2022-12-26T01:28:53.417Z,20.48
2022-12-26T01:31:22.243Z,23.73
2022-12-26T01:33:49.194Z,39.45
2022-12-26T01:36:17.689Z,16.50
2022-12-26T01:38:45.555Z,16.17
2022-12-26T01:41:20.483Z,12.07
2022-12-26T01:44:06.361Z,19.02
2022-12-26T01:46:45.852Z,18.45
2022-12-26T01:49:31.848Z,26.60
2022-12-26T01:52:34.185Z,17.83
2022-12-26T01:55:03.013Z,16.25
2022-12-26T01:57:36.553Z,15.60
2022-12-26T02:00:06.486Z,25.33
2022-12-26T02:03:01.657Z,31.90
2022-12-26T02:05:33.901Z,23.92
2022-12-26T02:08:15.886Z,20.88
2022-12-26T02:10:55.552Z,17.42
2022-12-26T02:13:29.485Z,13.38
2022-12-26T02:15:57.254Z,15.15
2022-12-26T02:18:50.078Z,17.15
2022-12-26T02:21:36.369Z,14.00
2022-12-26T02:24:26.932Z,18.65
2022-12-26T02:27:30.603Z,14.35
2022-12-26T02:30:07.063Z,11.80
2022-12-26T02:33:15.799Z,9.73
2022-12-26T02:35:49.035Z,12.95
2022-12-26T02:38:33.625Z,12.00
2022-12-26T02:41:41.794Z,11.15
2022-12-26T02:44:39.433Z,11.70
2022-12-26T02:47:26.542Z,18.58
2022-12-26T02:50:27.854Z,12.73
2022-12-26T02:53:33.697Z,14.35
2022-12-26T03:00:16.136Z,25.30
2022-12-26T03:03:36.087Z,13.35
2022-12-26T03:06:32.016Z,48.13
2022-12-26T03:09:26.149Z,21.23
2022-12-26T03:12:15.824Z,17.98
2022-12-26T03:14:58.373Z,14.82
2022-12-26T03:17:36.631Z,19.30
2022-12-26T03:20:13.744Z,16.50
2022-12-26T03:23:11.667Z,21.85
2022-12-26T03:26:05.621Z,17.50
2022-12-26T03:28:58.466Z,26.90
2022-12-26T03:31:27.121Z,24.40
2022-12-26T03:34:23.477Z,18.35
2022-12-26T03:37:19.004Z,20.08
2022-12-26T03:47:49.487Z,17.08
2022-12-26T03:54:39.198Z,20.02
2022-12-26T03:57:31.865Z,16.40
2022-12-26T04:00:47.640Z,16.42
2022-12-26T04:03:37.418Z,20.45
2022-12-26T04:06:25.842Z,25.17
2022-12-26T04:09:21.107Z,18.38
2022-12-26T04:12:07.467Z,17.92
2022-12-26T04:18:31.970Z,16.25
2022-12-26T04:21:05.444Z,18.30
2022-12-26T04:24:03.505Z,16.52
2022-12-26T04:27:10.160Z,15.35
2022-12-26T04:30:02.406Z,16.98
2022-12-26T04:33:04.830Z,18.05
2022-12-26T04:39:35.277Z,16.02
2022-12-26T04:42:22.758Z,17.25
2022-12-26T04:44:51.275Z,18.02
2022-12-26T04:47:24.125Z,19.25
2022-12-26T04:50:12.308Z,21.33
2022-12-26T04:52:58.626Z,22.15
2022-12-26T04:55:32.832Z,18.95
2022-12-26T04:58:01.136Z,18.45
2022-12-26T05:00:29.161Z,20.10
2022-12-26T05:06:31.601Z,17.77
2022-12-26T05:09:17.656Z,15.52
2022-12-26T05:11:47.223Z,19.63
2022-12-26T05:14:15.030Z,22.73
2022-12-26T05:20:15.923Z,18.77
2022-12-26T05:23:06.718Z,25.77
2022-12-26T05:28:57.923Z,23.55
2022-12-26T05:31:29.745Z,19.83
2022-12-26T05:34:07.702Z,18.65
2022-12-26T05:36:47.324Z,19.00
2022-12-26T05:39:20.098Z,21.88
2022-12-26T05:41:47.017Z,18.42
2022-12-26T05:44:19.079Z,18.55
2022-12-26T05:46:47.243Z,21.35
2022-12-26T05:49:19.063Z,23.85
2022-12-26T05:51:47.056Z,19.02
2022-12-26T05:54:15.122Z,19.05
2022-12-26T05:56:49.092Z,22.40
2022-12-26T05:59:22.140Z,18.60
2022-12-26T06:01:49.239Z,18.80
2022-12-26T06:04:17.064Z,23.10
2022-12-26T06:06:45.033Z,20.40
2022-12-26T06:09:13.039Z,24.73
2022-12-26T06:11:48.796Z,25.83
2022-12-26T06:14:17.252Z,22.95
2022-12-26T06:16:49.351Z,25.02
2022-12-26T06:19:22.439Z,26.63
2022-12-26T06:21:49.069Z,24.08
2022-12-26T06:24:23.412Z,24.58
2022-12-26T06:26:51.151Z,29.17
2022-12-26T06:29:19.152Z,30.27
2022-12-26T06:32:11.049Z,33.80
2022-12-26T06:34:39.169Z,32.92
2022-12-26T06:37:07.029Z,28.95
2022-12-26T06:39:40.077Z,28.25
2022-12-26T06:42:07.087Z,31.50
2022-12-26T06:44:35.128Z,31.10
2022-12-26T06:47:27.189Z,29.40
2022-12-26T06:49:55.059Z,28.75
2022-12-26T06:52:23.050Z,30.73
2022-12-26T06:54:51.107Z,25.55
2022-12-26T06:57:19.086Z,30.40
2022-12-26T06:59:47.036Z,30.75
2022-12-26T07:02:15.085Z,32.40
2022-12-26T07:05:12.390Z,24.95
2022-12-26T07:07:39.165Z,24.17
2022-12-26T07:10:07.327Z,23.67
2022-12-26T07:15:27.055Z,22.63
2022-12-26T07:17:55.617Z,24.92
2022-12-26T07:20:23.031Z,27.63
2022-12-26T07:22:56.133Z,21.77
2022-12-26T07:25:49.094Z,24.13
2022-12-26T07:28:17.097Z,27.48
2022-12-26T07:30:50.737Z,21.23
2022-12-26T07:33:19.116Z,24.05
2022-12-26T07:35:51.067Z,22.58
2022-12-26T07:38:19.188Z,24.65
2022-12-26T07:40:51.044Z,23.83
2022-12-26T07:43:19.020Z,24.95
2022-12-26T07:45:47.122Z,25.30
2022-12-26T07:48:15.095Z,23.63
2022-12-26T07:50:47.089Z,19.75
2022-12-26T07:56:08.088Z,31.60
2022-12-26T07:58:35.178Z,26.27
2022-12-26T08:01:04.569Z,25.08
2022-12-26T08:03:33.980Z,24.30
2022-12-26T08:06:01.374Z,25.98
2022-12-26T08:08:29.058Z,29.38
2022-12-26T08:11:01.336Z,25.63
2022-12-26T08:13:30.123Z,26.13
2022-12-26T08:15:57.991Z,24.48
2022-12-26T08:18:25.576Z,28.73
2022-12-26T08:20:53.235Z,31.70
2022-12-26T08:23:21.071Z,28.85
2022-12-26T08:25:54.093Z,31.83
2022-12-26T08:28:47.085Z,31.17
2022-12-26T08:31:15.221Z,28.55
2022-12-26T08:34:08.274Z,32.78
2022-12-26T08:36:40.193Z,31.67
2022-12-26T08:39:07.193Z,36.92
2022-12-26T08:41:35.052Z,35.20
2022-12-26T08:44:26.429Z,32.03
2022-12-26T08:52:59.039Z,33.72
2022-12-26T08:55:31.057Z,36.45
2022-12-26T08:57:59.045Z,40.95
2022-12-26T09:00:27.184Z,34.95
2022-12-26T09:03:00.226Z,34.95
2022-12-26T09:05:29.092Z,36.75
2022-12-26T09:08:02.113Z,32.70
2022-12-26T09:10:29.041Z,37.75
2022-12-26T09:12:57.092Z,40.72
2022-12-26T09:15:25.438Z,34.10
2022-12-26T09:17:57.134Z,36.00
2022-12-26T09:20:25.286Z,33.25
2022-12-26T09:22:53.529Z,32.55
2022-12-26T09:25:24.305Z,30.38
2022-12-26T09:30:45.202Z,30.50
2022-12-26T09:33:13.208Z,34.97
2022-12-26T09:35:41.677Z,34.45
2022-12-26T09:38:09.057Z,32.78
2022-12-26T09:41:04.924Z,37.47
2022-12-26T09:43:57.382Z,29.77
2022-12-26T09:46:36.582Z,33.13
2022-12-26T09:49:12.160Z,37.28
2022-12-26T09:52:16.118Z,34.03
2022-12-26T09:57:49.096Z,32.55
2022-12-26T10:00:23.998Z,38.05
2022-12-26T10:02:54.639Z,30.40
2022-12-26T10:05:27.995Z,33.47
2022-12-26T10:08:24.811Z,30.30
2022-12-26T10:11:02.127Z,32.42
2022-12-26T10:13:28.985Z,32.90
2022-12-26T10:16:21.653Z,32.90
2022-12-26T10:19:30.398Z,30.65
2022-12-26T10:21:59.179Z,36.50
2022-12-26T10:24:39.909Z,26.83
2022-12-26T10:27:17.281Z,29.00
2022-12-26T10:30:07.397Z,30.02
2022-12-26T10:32:42.299Z,27.67
2022-12-26T10:35:17.159Z,28.25
2022-12-26T10:37:45.189Z,27.27
2022-12-26T10:40:27.197Z,29.60
2022-12-26T10:46:44.954Z,27.10
2022-12-26T10:49:15.714Z,29.27
2022-12-26T10:51:50.719Z,26.50
2022-12-26T10:54:20.329Z,27.02
2022-12-26T10:56:51.647Z,25.88
2022-12-26T10:59:56.724Z,29.15
2022-12-26T11:02:27.167Z,26.83
2022-12-26T11:11:19.952Z,30.08
2022-12-26T11:13:51.397Z,26.88
2022-12-26T11:16:34.579Z,25.45
2022-12-26T11:19:03.350Z,27.48
2022-12-26T11:21:37.498Z,28.35
2022-12-26T11:24:08.015Z,25.48
2022-12-26T11:26:36.395Z,26.55
2022-12-26T11:29:24.359Z,28.17
2022-12-26T11:32:25.193Z,30.73
2022-12-26T11:34:53.043Z,23.05
2022-12-26T11:37:34.263Z,25.13
2022-12-26T11:40:04.789Z,25.27
2022-12-26T11:42:33.166Z,20.52
2022-12-26T11:45:12.014Z,24.17
2022-12-26T11:47:45.313Z,20.70
2022-12-26T11:50:26.055Z,20.45
2022-12-26T11:52:56.147Z,20.77
2022-12-26T11:55:23.206Z,20.17
2022-12-26T11:58:01.782Z,21.30
2022-12-26T12:00:29.734Z,25.15
2022-12-26T12:03:02.161Z,20.85
2022-12-26T12:05:28.993Z,16.90
2022-12-26T12:08:05.956Z,21.27
2022-12-26T12:10:48.703Z,16.00
2022-12-26T12:13:58.700Z,21.13
2022-12-26T12:16:44.352Z,16.20
2022-12-26T12:19:38.345Z,19.58
2022-12-26T12:25:29.500Z,20.30
2022-12-26T12:27:56.995Z,16.33
2022-12-26T12:30:37.029Z,18.75
2022-12-26T12:33:11.015Z,17.88
2022-12-26T12:36:01.020Z,15.95
2022-12-26T12:38:36.259Z,20.25
2022-12-26T12:41:21.495Z,15.02
2022-12-26T12:44:21.085Z,15.32
2022-12-26T12:47:06.368Z,16.45
2022-12-26T12:49:58.141Z,14.43
2022-12-26T12:53:03.466Z,15.38
2022-12-26T12:55:48.253Z,13.57
2022-12-26T12:58:24.098Z,16.10
2022-12-26T13:00:56.629Z,13.75
2022-12-26T13:03:36.617Z,19.38
2022-12-26T13:06:11.486Z,15.63
2022-12-26T13:09:13.884Z,14.18
2022-12-26T13:11:50.979Z,13.32
2022-12-26T13:14:30.898Z,13.30
2022-12-26T13:17:13.030Z,11.07
2022-12-26T13:19:51.583Z,16.95
2022-12-26T13:22:50.445Z,12.07
2022-12-26T13:25:19.020Z,13.52
2022-12-26T13:27:50.466Z,9.20
2022-12-26T13:33:14.955Z,7.50
2022-12-26T13:39:25.900Z,10.05
2022-12-26T13:42:13.326Z,5.40
2022-12-26T13:45:43.258Z,7.13
2022-12-26T13:48:17.052Z,4.22
2022-12-26T13:51:02.705Z,5.65
2022-12-26T13:53:33.597Z,6.15
2022-12-26T13:56:06.526Z,4.05
2022-12-26T13:58:41.706Z,4.20
2022-12-26T14:01:21.415Z,1.27
2022-12-26T14:03:55.951Z,3.17
2022-12-26T14:06:45.956Z,2.50
2022-12-26T14:09:21.309Z,4.72
2022-12-26T14:12:18.691Z,1.67
2022-12-26T14:15:02.243Z,3.17
2022-12-26T14:17:51.392Z,8.85
2022-12-26T14:20:50.689Z,6.72
2022-12-26T14:24:09.669Z,14.55
2022-12-26T14:26:53.169Z,6.68
2022-12-26T14:29:32.062Z,4.78
2022-12-26T14:32:39.628Z,6.90
2022-12-26T14:42:27.542Z,6.90
2022-12-26T14:44:57.784Z,3.70
2022-12-26T14:50:55.354Z,2.90
2022-12-26T14:53:28.868Z,7.30
2022-12-26T14:56:08.005Z,3.85
2022-12-26T14:58:42.475Z,8.05
2022-12-26T15:01:20.735Z,4.65
2022-12-26T15:03:58.104Z,8.25
2022-12-26T15:06:52.838Z,4.95
2022-12-26T15:09:42.112Z,4.28
2022-12-26T15:12:18.149Z,4.00
2022-12-26T15:15:22.303Z,6.35
2022-12-26T15:18:43.325Z,6.55
2022-12-26T15:21:45.970Z,5.22
2022-12-26T15:25:19.938Z,5.70
2022-12-26T15:28:03.459Z,5.25
2022-12-26T15:30:36.914Z,5.03
2022-12-26T15:33:25.625Z,4.55
2022-12-26T15:36:14.149Z,6.80
2022-12-26T15:39:10.211Z,6.95
2022-12-26T15:42:00.121Z,7.25
2022-12-26T15:44:53.905Z,8.82
2022-12-26T15:47:28.442Z,7.85
2022-12-26T15:50:02.876Z,14.27
2022-12-26T15:52:47.545Z,6.75
2022-12-26T15:58:55.810Z,3.53
2022-12-26T16:01:43.751Z,11.45
2022-12-26T16:07:42.602Z,11.93
2022-12-26T16:10:38.669Z,9.70
2022-12-26T16:13:23.443Z,11.93
2022-12-26T16:15:58.560Z,9.55
2022-12-26T16:18:30.612Z,7.65
2022-12-26T16:21:26.752Z,7.30
2022-12-26T16:23:56.855Z,7.35
2022-12-26T16:26:32.233Z,6.00
2022-12-26T16:29:05.781Z,6.07
2022-12-26T16:31:33.160Z,12.32
2022-12-26T16:34:01.212Z,8.63
2022-12-26T16:36:32.241Z,9.45
2022-12-26T16:39:09.654Z,12.50
2022-12-26T16:42:05.974Z,7.22
2022-12-26T16:44:42.983Z,9.90
2022-12-26T16:47:36.022Z,9.82
2022-12-26T16:50:17.954Z,7.80
2022-12-26T16:52:47.157Z,12.50
2022-12-26T16:55:35.422Z,9.80
2022-12-26T16:58:15.811Z,9.70
2022-12-26T17:00:50.317Z,10.55
2022-12-26T17:03:32.505Z,12.25
2022-12-26T17:06:06.690Z,6.97
2022-12-26T17:08:35.162Z,8.75
2022-12-26T17:11:03.116Z,16.38
2022-12-26T17:13:31.202Z,8.48
2022-12-26T17:16:04.420Z,12.95
2022-12-26T17:19:17.959Z,7.57
2022-12-26T17:22:19.133Z,9.90
2022-12-26T17:24:51.986Z,8.50
2022-12-26T17:27:19.101Z,9.13
2022-12-26T17:29:49.990Z,11.77
2022-12-26T17:32:27.654Z,7.55
2022-12-26T17:34:55.098Z,14.05
2022-12-26T17:37:51.543Z,8.93
2022-12-26T17:40:26.576Z,11.85
2022-12-26T17:43:09.539Z,8.02
2022-12-26T17:45:44.571Z,9.20
2022-12-26T17:48:40.899Z,10.85
2022-12-26T17:51:16.487Z,7.03
2022-12-26T17:53:50.133Z,12.10
2022-12-26T17:59:14.519Z,7.10
2022-12-26T18:01:43.224Z,7.45
2022-12-26T18:04:11.047Z,8.50
2022-12-26T18:06:40.687Z,10.23
2022-12-26T18:09:24.932Z,5.10
2022-12-26T18:11:57.159Z,14.40
2022-12-26T18:17:19.841Z,13.20
2022-12-26T18:20:12.045Z,16.90
2022-12-26T18:22:44.297Z,10.73
2022-12-26T18:25:20.230Z,5.43
2022-12-26T18:28:19.639Z,15.13
2022-12-26T18:30:49.872Z,9.07
2022-12-26T18:33:23.181Z,13.10
2022-12-26T18:35:51.285Z,9.43
2022-12-26T18:38:20.826Z,7.25
2022-12-26T18:40:53.324Z,3.95
2022-12-26T18:43:25.092Z,8.48
2022-12-26T18:45:58.337Z,6.10
2022-12-26T18:48:25.041Z,5.70
2022-12-26T18:50:53.091Z,12.43
2022-12-26T18:53:25.054Z,14.88
2022-12-26T18:55:53.279Z,9.48
2022-12-26T18:58:21.083Z,20.30
2022-12-26T19:00:49.115Z,7.55
2022-12-26T19:03:17.058Z,7.43
2022-12-26T19:05:45.063Z,15.30
2022-12-26T19:08:13.043Z,9.63
2022-12-26T19:10:44.564Z,9.80
2022-12-26T19:13:13.550Z,11.05
2022-12-26T19:15:46.739Z,10.13
2022-12-26T19:18:15.579Z,10.50
2022-12-26T19:24:05.338Z,11.88
2022-12-26T19:26:33.068Z,8.80
2022-12-26T19:29:01.096Z,14.77
2022-12-26T19:31:34.939Z,12.68
2022-12-26T19:34:03.187Z,13.70
2022-12-26T19:36:36.236Z,12.90
2022-12-26T19:39:03.757Z,9.55
2022-12-26T19:41:31.124Z,7.68
2022-12-26T19:44:05.073Z,10.07
2022-12-26T19:46:33.152Z,9.70
2022-12-26T19:49:01.105Z,11.27
2022-12-26T19:51:29.151Z,5.93
2022-12-26T19:53:57.035Z,9.40
2022-12-26T19:56:29.677Z,5.93
2022-12-26T19:59:03.095Z,11.27
2022-12-26T20:01:57.746Z,5.95
2022-12-26T20:04:51.068Z,21.40
2022-12-26T20:07:19.275Z,10.65
2022-12-26T20:09:47.043Z,8.68
2022-12-26T20:12:20.107Z,10.05
2022-12-26T20:14:47.054Z,12.55
2022-12-26T20:17:15.251Z,12.95
2022-12-26T20:22:41.112Z,10.85
2022-12-26T20:25:09.949Z,5.13
2022-12-26T20:27:42.171Z,9.40
2022-12-26T20:30:09.521Z,15.25
2022-12-26T20:32:37.094Z,8.52
2022-12-26T20:35:05.496Z,13.10
2022-12-26T20:37:33.322Z,14.07
2022-12-26T20:43:17.108Z,5.43
2022-12-26T20:45:45.070Z,10.73
2022-12-26T20:48:13.055Z,6.60
2022-12-26T20:50:41.069Z,7.97
2022-12-26T20:53:09.361Z,4.82
2022-12-26T20:55:42.494Z,14.57
2022-12-26T20:58:11.051Z,8.88
2022-12-26T21:00:44.749Z,9.68
2022-12-26T21:03:17.075Z,9.75
2022-12-26T21:05:50.115Z,9.88
2022-12-26T21:08:17.127Z,5.60
2022-12-26T21:10:45.344Z,8.63
2022-12-26T21:13:13.742Z,8.88
2022-12-26T21:15:46.083Z,10.07
2022-12-26T21:18:13.024Z,9.65
2022-12-26T21:20:46.460Z,8.07
2022-12-26T21:23:15.096Z,11.65
2022-12-26T21:25:43.067Z,10.30
2022-12-26T21:28:11.083Z,8.60
2022-12-26T21:30:44.969Z,11.00
2022-12-26T21:33:13.081Z,12.18
2022-12-26T21:36:15.486Z,11.13
2022-12-26T21:38:43.171Z,17.13
2022-12-26T21:41:11.847Z,7.72
2022-12-26T21:43:39.106Z,8.98
2022-12-26T21:46:09.431Z,11.52
2022-12-26T21:48:55.081Z,6.72
2022-12-26T21:51:47.088Z,5.15
2022-12-26T21:54:33.744Z,7.35
2022-12-26T21:57:01.205Z,5.45
2022-12-26T21:59:47.666Z,10.35
2022-12-26T22:05:03.200Z,8.60
2022-12-26T22:07:31.146Z,7.47
2022-12-26T22:09:59.317Z,20.17
2022-12-26T22:12:45.633Z,9.68
2022-12-26T22:15:36.921Z,7.10
2022-12-26T22:18:05.081Z,14.32
2022-12-26T22:20:35.498Z,5.10
2022-12-26T22:23:04.099Z,3.35
2022-12-26T22:25:32.313Z,4.90
2022-12-26T22:28:00.367Z,6.47
2022-12-26T22:30:27.507Z,7.25
2022-12-26T22:32:55.313Z,6.22
2022-12-26T22:35:23.134Z,8.63
2022-12-26T22:37:51.475Z,6.82
2022-12-26T22:40:19.063Z,4.95
2022-12-26T22:42:47.689Z,13.68
2022-12-26T22:45:15.234Z,7.25
2022-12-26T22:47:43.058Z,5.10
2022-12-26T22:50:16.126Z,5.65
2022-12-26T22:52:44.125Z,9.63
2022-12-26T22:55:13.143Z,7.75
2022-12-26T22:57:41.928Z,8.55
2022-12-26T23:00:15.365Z,8.05
2022-12-26T23:02:43.340Z,9.23
2022-12-26T23:05:12.359Z,6.43
2022-12-26T23:07:39.511Z,9.13
2022-12-26T23:10:36.885Z,5.63
2022-12-26T23:13:13.672Z,5.07
2022-12-26T23:16:42.642Z,10.48
2022-12-26T23:19:44.227Z,8.50
2022-12-26T23:22:37.298Z,5.72
2022-12-26T23:25:05.407Z,10.20
2022-12-26T23:27:55.724Z,5.80
2022-12-26T23:30:23.509Z,5.72
2022-12-26T23:32:53.219Z,8.95
2022-12-26T23:35:22.114Z,6.95
2022-12-26T23:37:49.713Z,8.63
2022-12-26T23:40:19.259Z,7.72
2022-12-26T23:42:47.366Z,7.28
2022-12-26T23:45:21.084Z,7.03
2022-12-26T23:47:49.088Z,9.52
2022-12-26T23:53:14.601Z,5.60
2022-12-26T23:55:43.081Z,8.10
2022-12-26T23:58:11.051Z,8.10
